Mount Freedom, NJ (07970)

6:18 AM EDT on August 31, 2015 (GMT -0400)
Randolph, NJ | | Change Station
CLOSE
Current Station
Personal Weather Station
Location: Randolph, NJ
Elevation: 850 ft
Nearby Weather Stations

Elev 850 ft 40.82 °N, 74.57 °W | Updated 7 minutes ago

Partly Cloudy
Partly Cloudy
67.0 °F
Feels Like 67.0 °F
N
0.0
Wind Variable Wind from North
Gusts 0.0 mph

Today
High -- | Low -- °F
--% Chance of Precip.
Yesterday
High -- | Low -- °F
Precip. -- in
6:23 AM 7:32 PM
Waning Gibbous, 96% visible
Pressure 30.03 in
Visibility 7.0 miles
Clouds Clear
Dew Point 66 °F
Humidity 96%
Rainfall 0.00 in
Snow Depth Not available.
UV 0 out of 12
Pollen 10.30 out of 12
Air Quality Not available.
Flu Activity Not available.
METAR KMMU 310955Z AUTO 00000KT 7SM CLR 19/17 A3003 RMK AO2
Pressure 30.03 in
Visibility 7.0 miles
Clouds Clear
Dew Point 66 °F
Humidity 96%
Rainfall 0.00 in
Snow Depth Not available.
UV 0 out of 12
Pollen 10.30 out of 12
Air Quality Not available.
Flu Activity Not available.
METAR KMMU 310955Z AUTO 00000KT 7SM CLR 19/17 A3003 RMK AO2

10-Day Weather Forecast

×

Almanac

Astronomy

Aug. 31, 2015 Rise Set
Actual Time
Civil Twilight
Nautical Twilight
Astronomical Twilight
Moon
Length of Visible Light
Length of Day
Tomorrow will be .
, % of the Moon is Illuminated

Today's Extremes

State Highs State Lows

Community

WunderPhotos

Upload Photos

1,851,229 photos uploaded!

WunderBlogs® & News

Nearby

Air Quality

  Air Quality AQ Index Pollutant
Not available.

Snow Depth

Station Depth Elevation

Earthquake Activity

City Distance Mag. Time & Date
Minimum magnitude displayed is 2.5.

Coastal Water Temperatures

Place Temperature

Stations

Nearby Weather Stations

Station Location Temp. Windchill Dew Point Humidity Wind Precip. Elev Updated Type